Bloomfield, MT (59315)

12:33 AM MST on January 28, 2015 (GMT -0700)
SE Bloomfield | Change Station
CLOSE
Current Station
Personal Weather Station
Location: Bloomfield, MT
Elevation: 2753 ft
Nearby Weather Stations
Active Advisory: Areal Flood Advisory Active Notice: Record Report

Elev 2753 ft 47.36 °N, 104.79 °W | Updated 8 seconds ago

Partly Cloudy
Partly Cloudy
41.5 °F
Feels Like 42 °F
N
2.0
Wind Variable Wind from WNW
Gusts 3.0 mph

Today
High -- | Low -- °F
--% Chance of Precip.
Yesterday
High -- | Low -- °F
Precip. -- in
7:30 AM 4:55 PM
Waxing Gibbous, 62% visible
Pressure 29.77 in
Visibility 10.0 miles
Clouds Clear
Windchill 42 °F
Dew Point 34 °F
Humidity 74%
Rainfall 0.00 in
Snow Depth Not available.
UV 0 out of 12
Pollen .10 out of 12
Air Quality Not available.
Flu Activity Not available.
METAR KGDV 280715Z AUTO 19003KT 10SM CLR 02/M02 A2977 RMK AO1

More Conditions Fewer Conditions

Pressure 29.77 in
Visibility 10.0 miles
Clouds Clear
Windchill 42 °F
Dew Point 34 °F
Humidity 74%
Rainfall 0.00 in
Snow Depth Not available.
UV 0 out of 12
Pollen .10 out of 12
Air Quality Not available.
Flu Activity Not available.
METAR KGDV 280715Z AUTO 19003KT 10SM CLR 02/M02 A2977 RMK AO1

More Conditions Fewer Conditions

10-Day Weather Forecast

Almanac

Astronomy

Jan. 28, 2015 Rise Set
Actual Time
Civil Twilight
Nautical Twilight
Astronomical Twilight
Moon
Length of Visible Light
Length of Day
Tomorrow will be .
, % of the Moon is Illuminated

Today's Extremes

State Highs State Lows

Community

WunderPhotos

Upload Photos

1,791,117 photos uploaded!

WunderBlogs® & News

Nearby

Air Quality

  Air Quality AQ Index Pollutant
Not available.

Snow Depth

Station Depth Elevation

Earthquake Activity

City Distance Mag. Time & Date
Minimum magnitude displayed is 2.5.

Coastal Water Temperatures

Place Temperature

Nearby Weather Stations